Observation data for Spur on 06/15/2019      Previous  Date  Next       Current Mesonet Observations  Soil Data  Daily Summary Page  Observations in Plain Language
KSP1 150500Z 19009KT 26/15 A2981 RMK A01 T02630152  RH  053%=      5-min Rain = 0
KSP1 150505Z 20010KT 26/15 A2981 RMK A01 T02620152  RH  053%=      5-min Rain = 0
KSP1 150510Z 20010G15KT 26/15 A2981 RMK A01 T02620152  RH  053%=      5-min Rain = 0
KSP1 150515Z 20009KT 26/15 A2981 RMK A01 T02610152  RH  053%=      5-min Rain = 0
KSP1 150520Z 20009G14KT 26/15 A2981 RMK A01 T02610152  RH  054%=      5-min Rain = 0
KSP1 150525Z 20009G15KT 26/15 A2981 RMK A01 T02590152  RH  054%=      5-min Rain = 0
KSP1 150530Z 20010KT 26/15 A2981 RMK A01 T02590152  RH  054%=      5-min Rain = 0
KSP1 150535Z 20011G18KT 26/15 A2981 RMK A01 T02600152  RH  054%=      5-min Rain = 0
KSP1 150540Z 21010KT 26/15 A2981 RMK A01 T02600152  RH  054%=      5-min Rain = 0
KSP1 150545Z 22009G14KT 26/15 A2982 RMK A01 T02590153  RH  054%=      5-min Rain = 0
KSP1 150550Z 23008KT 26/15 A2983 RMK A01 T02570154  RH  055%=      5-min Rain = 0
KSP1 150555Z 20010G16KT 26/15 A2982 RMK A01 T02560154  RH  056%=      5-min Rain = 0
KSP1 150600Z 20010G16KT 26/16 A2981 RMK A01 T02550155  RH  056%=      5-min Rain = 0
KSP1 150605Z 20011KT 26/16 A2981 RMK A01 T02550155  RH  056%=      5-min Rain = 0
KSP1 150610Z 21009G14KT 26/16 A2982 RMK A01 T02560155  RH  056%=      5-min Rain = 0
KSP1 150615Z 21011G16KT 26/16 A2982 RMK A01 T02560155  RH  056%=      5-min Rain = 0
KSP1 150620Z 20010KT 26/16 A2981 RMK A01 T02550155  RH  056%=      5-min Rain = 0
KSP1 150625Z 19011KT 25/16 A2981 RMK A01 T02540155  RH  057%=      5-min Rain = 0
KSP1 150630Z 20011G16KT 25/15 A2981 RMK A01 T02540154  RH  057%=      5-min Rain = 0
KSP1 150635Z 20009KT 25/15 A2981 RMK A01 T02540154  RH  057%=      5-min Rain = 0
KSP1 150640Z 20010KT 25/15 A2981 RMK A01 T02520153  RH  057%=      5-min Rain = 0
KSP1 150645Z 20010G16KT 25/15 A2982 RMK A01 T02520152  RH  056%=      5-min Rain = 0
KSP1 150650Z 20010KT 25/15 A2981 RMK A01 T02520151  RH  056%=      5-min Rain = 0
KSP1 150655Z 20010KT 25/15 A2981 RMK A01 T02520150  RH  056%=      5-min Rain = 0
KSP1 150700Z 20010KT 25/15 A2981 RMK A01 T02510149  RH  056%=      5-min Rain = 0
KSP1 150705Z 20010KT 25/15 A2981 RMK A01 T02510148  RH  055%=      5-min Rain = 0
KSP1 150710Z 20010KT 25/15 A2981 RMK A01 T02510148  RH  055%=      5-min Rain = 0
KSP1 150715Z 20009G14KT 25/15 A298 RMK A01 T02500147  RH  055%=      5-min Rain = 0
KSP1 150720Z 20010G15KT 25/15 A2981 RMK A01 T02490147  RH  055%=      5-min Rain = 0
KSP1 150725Z 19011KT 25/15 A298 RMK A01 T02490146  RH  055%=      5-min Rain = 0
KSP1 150730Z 19010KT 25/15 A298 RMK A01 T02490147  RH  055%=      5-min Rain = 0
KSP1 150735Z 20009KT 25/15 A298 RMK A01 T02480147  RH  056%=      5-min Rain = 0
KSP1 150740Z 20009KT 25/15 A298 RMK A01 T02470147  RH  056%=      5-min Rain = 0
KSP1 150745Z 20010KT 25/15 A298 RMK A01 T02470146  RH  056%=      5-min Rain = 0
KSP1 150750Z 20010G15KT 25/15 A298 RMK A01 T02470146  RH  056%=      5-min Rain = 0
KSP1 150755Z 20009KT 25/15 A298 RMK A01 T02460146  RH  056%=      5-min Rain = 0
KSP1 150800Z 20008KT 24/15 A298 RMK A01 T02440146  RH  057%=      5-min Rain = 0
KSP1 150805Z 20008KT 24/15 A298 RMK A01 T02420147  RH  058%=      5-min Rain = 0
KSP1 150810Z 20007KT 24/15 A298 RMK A01 T02410146  RH  058%=      5-min Rain = 0
KSP1 150815Z 20007KT 24/15 A298 RMK A01 T02400146  RH  058%=      5-min Rain = 0
KSP1 150820Z 20007KT 24/15 A298 RMK A01 T02400146  RH  058%=      5-min Rain = 0
KSP1 150825Z 21006KT 24/15 A2979 RMK A01 T02380146  RH  059%=      5-min Rain = 0
KSP1 150830Z 21006KT 24/15 A2979 RMK A01 T02370146  RH  059%=      5-min Rain = 0
KSP1 150835Z 21007KT 24/15 A2979 RMK A01 T02370146  RH  059%=      5-min Rain = 0
KSP1 150840Z 21007KT 24/15 A2979 RMK A01 T02360146  RH  060%=      5-min Rain = 0
KSP1 150845Z 22007KT 24/15 A2979 RMK A01 T02380146  RH  059%=      5-min Rain = 0
KSP1 150850Z 22007KT 24/15 A2979 RMK A01 T02360146  RH  060%=      5-min Rain = 0
KSP1 150855Z 22007KT 24/15 A2979 RMK A01 T02350146  RH  060%=      5-min Rain = 0
KSP1 150900Z 22007KT 23/15 A2979 RMK A01 T02340146  RH  060%=      5-min Rain = 0
KSP1 150905Z 22006KT 23/15 A2979 RMK A01 T02330147  RH  061%=      5-min Rain = 0
KSP1 150910Z 22005KT 23/15 A2979 RMK A01 T02300146  RH  062%=      5-min Rain = 0
KSP1 150915Z 22005KT 23/15 A2979 RMK A01 T02270147  RH  063%=      5-min Rain = 0
KSP1 150920Z 21006KT 22/15 A2978 RMK A01 T02230147  RH  065%=      5-min Rain = 0
KSP1 150925Z 21006KT 22/15 A2978 RMK A01 T02220147  RH  065%=      5-min Rain = 0
KSP1 150930Z 21006KT 22/15 A2978 RMK A01 T02200147  RH  066%=      5-min Rain = 0
KSP1 150935Z 21006KT 22/15 A2978 RMK A01 T02200147  RH  066%=      5-min Rain = 0
KSP1 150940Z 22006KT 22/15 A2978 RMK A01 T02190146  RH  066%=      5-min Rain = 0
KSP1 150945Z 22006KT 22/15 A2978 RMK A01 T02190146  RH  066%=      5-min Rain = 0
KSP1 150950Z 22006KT 22/15 A2978 RMK A01 T02200146  RH  065%=      5-min Rain = 0
KSP1 150955Z 22006KT 22/15 A2978 RMK A01 T02220145  RH  064%=      5-min Rain = 0
KSP1 151000Z 22006KT 22/15 A2977 RMK A01 T02210146  RH  065%=      5-min Rain = 0
KSP1 151005Z 21008KT 22/15 A2977 RMK A01 T02220145  RH  065%=      5-min Rain = 0
KSP1 151010Z 22008KT 22/15 A2977 RMK A01 T02240145  RH  064%=      5-min Rain = 0
KSP1 151015Z 22007KT 23/15 A2977 RMK A01 T02250145  RH  063%=      5-min Rain = 0
KSP1 151020Z 22006KT 22/15 A2976 RMK A01 T02240145  RH  064%=      5-min Rain = 0
KSP1 151025Z 22006KT 22/15 A2976 RMK A01 T02210145  RH  065%=      5-min Rain = 0
KSP1 151030Z 22007KT 22/15 A2976 RMK A01 T02200145  RH  065%=      5-min Rain = 0
KSP1 151035Z 22008KT 22/15 A2976 RMK A01 T02210145  RH  065%=      5-min Rain = 0
KSP1 151040Z 22008KT 22/15 A2976 RMK A01 T02240145  RH  064%=      5-min Rain = 0
KSP1 151045Z 22007KT 22/15 A2976 RMK A01 T02240145  RH  064%=      5-min Rain = 0
KSP1 151050Z 22007KT 22/15 A2976 RMK A01 T02220145  RH  064%=      5-min Rain = 0
KSP1 151055Z 21006KT 22/15 A2976 RMK A01 T02190145  RH  065%=      5-min Rain = 0
KSP1 151100Z 21005KT 22/15 A2976 RMK A01 T02160145  RH  067%=      5-min Rain = 0
KSP1 151105Z 20004KT 21/15 A2976 RMK A01 T02120145  RH  068%=      5-min Rain = 0
KSP1 151110Z 20005KT 21/15 A2976 RMK A01 T02080145  RH  070%=      5-min Rain = 0
KSP1 151115Z 19005KT 21/15 A2976 RMK A01 T02060145  RH  071%=      5-min Rain = 0
KSP1 151120Z 20004KT 21/15 A2976 RMK A01 T02050145  RH  072%=      5-min Rain = 0
KSP1 151125Z 21005KT 20/15 A2977 RMK A01 T02040145  RH  072%=      5-min Rain = 0
KSP1 151130Z 20005KT 20/14 A2977 RMK A01 T02020144  RH  072%=      5-min Rain = 0
KSP1 151135Z 20005KT 20/14 A2977 RMK A01 T02010144  RH  073%=      5-min Rain = 0
KSP1 151140Z 21004KT 20/14 A2977 RMK A01 T02000144  RH  073%=      5-min Rain = 0
KSP1 151145Z 21004KT 20/14 A2977 RMK A01 T01990144  RH  073%=      5-min Rain = 0
KSP1 151150Z 20004KT 20/14 A2977 RMK A01 T02010144  RH  073%=      5-min Rain = 0
KSP1 151155Z 21004KT 20/14 A2977 RMK A01 T02020144  RH  072%=      5-min Rain = 0
KSP1 151200Z 22005KT 20/15 A2977 RMK A01 T02030145  RH  072%=      5-min Rain = 0
KSP1 151205Z 22006KT 21/15 A2977 RMK A01 T02070146  RH  071%=      5-min Rain = 0
KSP1 151210Z 22006KT 21/15 A2977 RMK A01 T02130147  RH  069%=      5-min Rain = 0
KSP1 151215Z 22006KT 22/15 A2977 RMK A01 T02160147  RH  068%=      5-min Rain = 0
KSP1 151220Z 22006KT 22/15 A2978 RMK A01 T02190148  RH  067%=      5-min Rain = 0
KSP1 151225Z 22006KT 22/15 A2978 RMK A01 T02220149  RH  066%=      5-min Rain = 0
KSP1 151230Z 21006KT 23/15 A2978 RMK A01 T02250149  RH  065%=      5-min Rain = 0
KSP1 151235Z 22006KT 23/15 A2978 RMK A01 T02270150  RH  065%=      5-min Rain = 0
KSP1 151240Z 23005KT 23/15 A2978 RMK A01 T02290150  RH  064%=      5-min Rain = 0
KSP1 151245Z 23005KT 23/15 A2979 RMK A01 T02300151  RH  064%=      5-min Rain = 0
KSP1 151250Z 22005KT 23/15 A2979 RMK A01 T02310152  RH  064%=      5-min Rain = 0
KSP1 151255Z 22005KT 23/15 A2979 RMK A01 T02330153  RH  064%=      5-min Rain = 0
KSP1 151300Z 22005KT 23/15 A2979 RMK A01 T02340153  RH  063%=      5-min Rain = 0
KSP1 151305Z 21005KT 24/15 A2979 RMK A01 T02360154  RH  063%=      5-min Rain = 0
KSP1 151310Z 22006KT 24/15 A2979 RMK A01 T02380154  RH  062%=      5-min Rain = 0
KSP1 151315Z 23006KT 24/15 A2979 RMK A01 T02400153  RH  061%=      5-min Rain = 0
KSP1 151320Z 22006G11KT 24/15 A2979 RMK A01 T02430153  RH  060%=      5-min Rain = 0
KSP1 151325Z 22007KT 25/15 A2979 RMK A01 T02450152  RH  059%=      5-min Rain = 0
KSP1 151330Z 22008G13KT 25/15 A2979 RMK A01 T02470152  RH  058%=      5-min Rain = 0
KSP1 151335Z 21010G15KT 25/15 A2979 RMK A01 T02490150  RH  057%=      5-min Rain = 0
KSP1 151340Z 22013G18KT 25/15 A2979 RMK A01 T02510147  RH  055%=      5-min Rain = 0
KSP1 151345Z 22011G16KT 25/15 A2979 RMK A01 T02520146  RH  054%=      5-min Rain = 0
KSP1 151350Z 23010G17KT 26/15 A2979 RMK A01 T02550146  RH  053%=      5-min Rain = 0
KSP1 151355Z 22011G16KT 26/15 A2979 RMK A01 T02560145  RH  052%=      5-min Rain = 0
KSP1 151400Z 22009G14KT 26/15 A2979 RMK A01 T02580147  RH  053%=      5-min Rain = 0
KSP1 151405Z 23010G16KT 26/15 A2979 RMK A01 T02610146  RH  051%=      5-min Rain = 0
KSP1 151410Z 22009G14KT 26/15 A2979 RMK A01 T02610146  RH  051%=      5-min Rain = 0
KSP1 151415Z 22009G14KT 27/15 A2979 RMK A01 T02650147  RH  050%=      5-min Rain = 0
KSP1 151420Z 22009G14KT 27/15 A2979 RMK A01 T02670145  RH  049%=      5-min Rain = 0
KSP1 151425Z 22010G18KT 27/14 A2979 RMK A01 T02680141  RH  047%=      5-min Rain = 0
KSP1 151430Z 22012KT 27/14 A2979 RMK A01 T02690137  RH  046%=      5-min Rain = 0
KSP1 151435Z 23009G14KT 27/14 A2979 RMK A01 T02720140  RH  046%=      5-min Rain = 0
KSP1 151440Z 22010G15KT 27/14 A298 RMK A01 T02740139  RH  045%=      5-min Rain = 0
KSP1 151445Z 22009KT 27/14 A298 RMK A01 T02740139  RH  045%=      5-min Rain = 0
KSP1 151450Z 21010KT 28/14 A2979 RMK A01 T02760139  RH  045%=      5-min Rain = 0
KSP1 151455Z 22012G17KT 28/14 A2979 RMK A01 T02770137  RH  044%=      5-min Rain = 0
KSP1 151500Z 22012G18KT 28/14 A298 RMK A01 T02770136  RH  044%=      5-min Rain = 0
KSP1 151505Z 21012KT 28/14 A2979 RMK A01 T02770138  RH  044%=      5-min Rain = 0
KSP1 151510Z 22013G18KT 28/14 A2979 RMK A01 T02800138  RH  044%=      5-min Rain = 0
KSP1 151515Z 22013G18KT 28/14 A2979 RMK A01 T02830137  RH  042%=      5-min Rain = 0
KSP1 151520Z 24011G16KT 29/14 A2979 RMK A01 T02850136  RH  042%=      5-min Rain = 0
KSP1 151525Z 24010G15KT 29/14 A2979 RMK A01 T02870136  RH  041%=      5-min Rain = 0
KSP1 151530Z 23011G16KT 29/14 A2979 RMK A01 T02870135  RH  041%=      5-min Rain = 0
KSP1 151535Z 22011G17KT 29/14 A2979 RMK A01 T02880136  RH  041%=      5-min Rain = 0
KSP1 151540Z 22010KT 29/14 A2979 RMK A01 T02910136  RH  040%=      5-min Rain = 0
KSP1 151545Z 21011KT 29/14 A2979 RMK A01 T02910136  RH  040%=      5-min Rain = 0
KSP1 151550Z 23007G13KT 29/14 A2979 RMK A01 T02940138  RH  040%=      5-min Rain = 0
KSP1 151555Z 24009KT 30/13 A2979 RMK A01 T02970134  RH  039%=      5-min Rain = 0
KSP1 151600Z 23010KT 30/14 A2979 RMK A01 T02990135  RH  038%=      5-min Rain = 0
KSP1 151605Z 23009G15KT 30/13 A2979 RMK A01 T03010132  RH  037%=      5-min Rain = 0
KSP1 151610Z 23009G14KT 31/13 A2979 RMK A01 T03050130  RH  036%=      5-min Rain = 0
KSP1 151615Z 24011G16KT 31/12 A2978 RMK A01 T03070119  RH  033%=      5-min Rain = 0
KSP1 151620Z 23011KT 31/11 A2978 RMK A01 T03080113  RH  031%=      5-min Rain = 0
KSP1 151625Z 23011G18KT 31/12 A2978 RMK A01 T03100115  RH  031%=      5-min Rain = 0
KSP1 151630Z 23010KT 31/12 A2978 RMK A01 T03120117  RH  031%=      5-min Rain = 0
KSP1 151635Z 24010G15KT 31/11 A2979 RMK A01 T03130109  RH  029%=      5-min Rain = 0
KSP1 151640Z 22009KT 32/12 A2979 RMK A01 T03150118  RH  031%=      5-min Rain = 0
KSP1 151645Z 22009KT 32/11 A2979 RMK A01 T03180111  RH  029%=      5-min Rain = 0
KSP1 151650Z 21010KT 32/11 A2979 RMK A01 T03190109  RH  028%=      5-min Rain = 0
KSP1 151655Z 23009G15KT 32/11 A2979 RMK A01 T03210107  RH  028%=      5-min Rain = 0
KSP1 151700Z 22009KT 32/11 A2979 RMK A01 T03220105  RH  027%=      5-min Rain = 0
KSP1 151705Z 22009KT 32/11 A2979 RMK A01 T03240112  RH  028%=      5-min Rain = 0
KSP1 151710Z 23010G16KT 33/10 A2979 RMK A01 T03250104  RH  027%=      5-min Rain = 0
KSP1 151715Z 22009KT 33/10 A2979 RMK A01 T03250104  RH  027%=      5-min Rain = 0
KSP1 151720Z 22008G13KT 33/11 A2979 RMK A01 T03250106  RH  027%=      5-min Rain = 0
KSP1 151725Z 23009KT 33/11 A2979 RMK A01 T03270109  RH  027%=      5-min Rain = 0
KSP1 151730Z 23007G12KT 33/11 A2979 RMK A01 T03290105  RH  026%=      5-min Rain = 0
KSP1 151735Z 22009KT 33/11 A2979 RMK A01 T03300107  RH  026%=      5-min Rain = 0
KSP1 151740Z 22007KT 33/11 A2979 RMK A01 T03320108  RH  026%=      5-min Rain = 0
KSP1 151745Z 26007KT 34/10 A2979 RMK A01 T03350095  RH  024%=      5-min Rain = 0
KSP1 151750Z 26008KT 34/10 A2979 RMK A01 T03350100  RH  024%=      5-min Rain = 0
KSP1 151755Z 23008KT 34/10 A2978 RMK A01 T03350104  RH  025%=      5-min Rain = 0
KSP1 151800Z 23010KT 34/10 A2978 RMK A01 T03370100  RH  024%=      5-min Rain = 0
KSP1 151805Z 24008G14KT 34/10 A2978 RMK A01 T03380099  RH  024%=      5-min Rain = 0
KSP1 151810Z 24007G13KT 34/10 A2978 RMK A01 T03410100  RH  024%=      5-min Rain = 0
KSP1 151815Z 23008KT 34/10 A2978 RMK A01 T03420103  RH  024%=      5-min Rain = 0
KSP1 151820Z 24007KT 34/10 A2978 RMK A01 T03430104  RH  024%=      5-min Rain = 0
KSP1 151825Z 24008KT 35/10 A2978 RMK A01 T03460095  RH  022%=      5-min Rain = 0
KSP1 151830Z 23006G11KT 34/09 A2978 RMK A01 T03440094  RH  022%=      5-min Rain = 0
KSP1 151835Z 24006KT 35/10 A2978 RMK A01 T03480097  RH  022%=      5-min Rain = 0
KSP1 151840Z 26006G13KT 35/09 A2978 RMK A01 T03480088  RH  021%=      5-min Rain = 0
KSP1 151845Z 25005KT 35/08 A2978 RMK A01 T03480084  RH  020%=      5-min Rain = 0
KSP1 151850Z 25007KT 35/09 A2977 RMK A01 T03470086  RH  021%=      5-min Rain = 0
KSP1 151855Z 26004G11KT 35/08 A2977 RMK A01 T03460084  RH  021%=      5-min Rain = 0
KSP1 151900Z 24005KT 35/09 A2977 RMK A01 T03500091  RH  021%=      5-min Rain = 0
KSP1 151905Z 24006KT 35/09 A2977 RMK A01 T03510089  RH  021%=      5-min Rain = 0
KSP1 151910Z 25007G12KT 35/09 A2977 RMK A01 T03510089  RH  021%=      5-min Rain = 0
KSP1 151915Z 24005G11KT 35/09 A2977 RMK A01 T03530087  RH  020%=      5-min Rain = 0
KSP1 151920Z 22003KT 35/09 A2977 RMK A01 T03530086  RH  020%=      5-min Rain = 0
KSP1 151925Z 23005KT 35/09 A2976 RMK A01 T03540089  RH  020%=      5-min Rain = 0
KSP1 151930Z 26005KT 35/08 A2976 RMK A01 T03540082  RH  019%=      5-min Rain = 0
KSP1 151935Z 26003KT 36/08 A2976 RMK A01 T03570083  RH  019%=      5-min Rain = 0
KSP1 151940Z 26006KT 36/09 A2976 RMK A01 T03570091  RH  020%=      5-min Rain = 0
KSP1 151945Z 21002G7KT 35/09 A2976 RMK A01 T03520086  RH  020%=      5-min Rain = 0
KSP1 151950Z 26005KT 35/08 A2976 RMK A01 T03510082  RH  020%=      5-min Rain = 0
KSP1 151955Z 07001KT 35/08 A2976 RMK A01 T03510081  RH  020%=      5-min Rain = 0
KSP1 152000Z 22004KT 35/09 A2976 RMK A01 T03540089  RH  021%=      5-min Rain = 0
KSP1 152005Z 23003KT 35/08 A2976 RMK A01 T03520082  RH  020%=      5-min Rain = 0
KSP1 152010Z 17001KT 35/08 A2976 RMK A01 T03530083  RH  020%=      5-min Rain = 0
KSP1 152015Z 15003KT 35/09 A2976 RMK A01 T03540087  RH  020%=      5-min Rain = 0
KSP1 152020Z 16004KT 35/09 A2976 RMK A01 T03530090  RH  021%=      5-min Rain = 0
KSP1 152025Z 14004KT 35/09 A2976 RMK A01 T03530085  RH  020%=      5-min Rain = 0
KSP1 152030Z 15004KT 35/09 A2976 RMK A01 T03500085  RH  020%=      5-min Rain = 0
KSP1 152035Z 13004KT 36/09 A2976 RMK A01 T03550089  RH  020%=      5-min Rain = 0
KSP1 152040Z 11005KT 36/09 A2976 RMK A01 T03560087  RH  020%=      5-min Rain = 0
KSP1 152045Z 10005KT 36/08 A2975 RMK A01 T03550083  RH  019%=      5-min Rain = 0
KSP1 152050Z 09004G9KT 35/09 A2975 RMK A01 T03530086  RH  020%=      5-min Rain = 0
KSP1 152055Z 15005KT 36/10 A2975 RMK A01 T03590095  RH  021%=      5-min Rain = 0
KSP1 152100Z 16004KT 36/09 A2975 RMK A01 T03580091  RH  020%=      5-min Rain = 0
KSP1 152105Z 15004KT 35/09 A2975 RMK A01 T03530088  RH  020%=      5-min Rain = 0
KSP1 152110Z 14004G9KT 36/09 A2975 RMK A01 T03560088  RH  020%=      5-min Rain = 0
KSP1 152115Z 14004KT 36/09 A2975 RMK A01 T03600086  RH  019%=      5-min Rain = 0
KSP1 152120Z 20004KT 36/08 A2974 RMK A01 T03620078  RH  018%=      5-min Rain = 0
KSP1 152125Z 14004KT 36/08 A2974 RMK A01 T03630080  RH  018%=      5-min Rain = 0
KSP1 152130Z 16005KT 36/08 A2974 RMK A01 T03630079  RH  018%=      5-min Rain = 0
KSP1 152135Z 18003KT 36/07 A2974 RMK A01 T03640071  RH  017%=      5-min Rain = 0
KSP1 152140Z 09000KT 37/06 A2973 RMK A01 T03660055  RH  015%=      5-min Rain = 0
KSP1 152145Z 16003G8KT 37/07 A2973 RMK A01 T03690072  RH  017%=      5-min Rain = 0
KSP1 152150Z 19006KT 37/06 A2973 RMK A01 T03670056  RH  015%=      5-min Rain = 0
KSP1 152155Z 19004KT 37/06 A2973 RMK A01 T03670062  RH  016%=      5-min Rain = 0
KSP1 152200Z 19007KT 37/06 A2973 RMK A01 T03660058  RH  015%=      5-min Rain = 0
KSP1 152205Z 19005KT 37/06 A2973 RMK A01 T03680057  RH  015%=      5-min Rain = 0
KSP1 152210Z 19004G12KT 37/05 A2972 RMK A01 T03650047  RH  014%=      5-min Rain = 0
KSP1 152215Z 17006G12KT 36/09 A2972 RMK A01 T03590086  RH  020%=      5-min Rain = 0
KSP1 152220Z 18006KT 35/09 A2972 RMK A01 T03510091  RH  021%=      5-min Rain = 0
KSP1 152225Z 17006KT 35/09 A2972 RMK A01 T03470089  RH  021%=      5-min Rain = 0
KSP1 152230Z 17005KT 34/10 A2971 RMK A01 T03440096  RH  023%=      5-min Rain = 0
KSP1 152235Z 15005KT 34/09 A2971 RMK A01 T03390094  RH  023%=      5-min Rain = 0
KSP1 152240Z 14005KT 34/09 A297 RMK A01 T03350094  RH  024%=      5-min Rain = 0
KSP1 152245Z 15006KT 33/09 A2969 RMK A01 T03320094  RH  024%=      5-min Rain = 0
KSP1 152250Z 14005KT 33/09 A297 RMK A01 T03300094  RH  024%=      5-min Rain = 0
KSP1 152255Z 13003KT 33/10 A297 RMK A01 T03300097  RH  025%=      5-min Rain = 0
KSP1 152300Z 13003KT 33/10 A297 RMK A01 T03300098  RH  025%=      5-min Rain = 0
KSP1 152305Z 13003KT 33/10 A2971 RMK A01 T03300099  RH  025%=      5-min Rain = 0
KSP1 152310Z 13003KT 33/11 A2971 RMK A01 T03280105  RH  026%=      5-min Rain = 0
KSP1 152315Z 12003KT 33/11 A2971 RMK A01 T03250111  RH  028%=      5-min Rain = 0
KSP1 152320Z 12002KT 32/12 A2971 RMK A01 T03240115  RH  029%=      5-min Rain = 0
KSP1 152325Z 09003KT 32/12 A2971 RMK A01 T03220117  RH  030%=      5-min Rain = 0
KSP1 152330Z 07002KT 32/12 A2972 RMK A01 T03210119  RH  030%=      5-min Rain = 0
KSP1 152335Z 06003KT 32/12 A2971 RMK A01 T03190121  RH  031%=      5-min Rain = 0
KSP1 152340Z 07004KT 31/13 A297 RMK A01 T03140125  RH  033%=      5-min Rain = 0
KSP1 152345Z 08003KT 31/12 A297 RMK A01 T03110123  RH  033%=      5-min Rain = 0
KSP1 152350Z 10004KT 31/12 A2969 RMK A01 T03120121  RH  032%=      5-min Rain = 0
KSP1 152355Z 10005KT 31/12 A2969 RMK A01 T03140123  RH  032%=      5-min Rain = 0
KSP1 160000Z 09005KT 31/13 A2971 RMK A01 T03130126  RH  033%=      5-min Rain = 0
KSP1 160005Z 06004KT 31/13 A2971 RMK A01 T03120130  RH  034%=      5-min Rain = 0
KSP1 160010Z 36009G15KT 30/14 A2972 RMK A01 T03030143  RH  039%=      5-min Rain = 0
KSP1 160015Z 01007KT 29/14 A2973 RMK A01 T02940141  RH  041%=      5-min Rain = 0
KSP1 160020Z 01009G14KT 30/14 A2973 RMK A01 T02960138  RH  040%=      5-min Rain = 0
KSP1 160025Z 03009G18KT 30/14 A2973 RMK A01 T02950141  RH  041%=      5-min Rain = 0
KSP1 160030Z 03009G16KT 30/13 A2973 RMK A01 T02980133  RH  038%=      5-min Rain = 0
KSP1 160035Z 05005KT 30/14 A2973 RMK A01 T02960139  RH  040%=      5-min Rain = 0
KSP1 160040Z 05004KT 29/14 A2973 RMK A01 T02930144  RH  042%=      5-min Rain = 0
KSP1 160045Z 08006G11KT 29/13 A2974 RMK A01 T02940128  RH  038%=      5-min Rain = 0
KSP1 160050Z 01007G14KT 29/14 A2974 RMK A01 T02890139  RH  042%=      5-min Rain = 0
KSP1 160055Z 01015G26KT 29/12 A2974 RMK A01 T02890117  RH  036%=      5-min Rain = 0
KSP1 160100Z 01017G26KT 28/10 A2974 RMK A01 T02780101  RH  034%=      5-min Rain = 0
KSP1 160105Z 02018G28KT 27/11 A2974 RMK A01 T02660111  RH  039%=      5-min Rain = 0
KSP1 160110Z 03011G17KT 25/12 A2974 RMK A01 T02540116  RH  044%=      5-min Rain = 0
KSP1 160115Z 01011G17KT 25/12 A2973 RMK A01 T02510117  RH  045%=      5-min Rain = 0
KSP1 160120Z 35009KT 24/13 A2974 RMK A01 T02440125  RH  049%=      5-min Rain = 0
KSP1 160125Z 01007G15KT 24/12 A2976 RMK A01 T02420118  RH  048%=      5-min Rain = 0
KSP1 160130Z 02011G16KT 24/12 A2974 RMK A01 T02410120  RH  048%=      5-min Rain = 0
KSP1 160135Z 01013G18KT 24/12 A2974 RMK A01 T02390117  RH  048%=      5-min Rain = 0
KSP1 160140Z 36012KT 24/12 A2975 RMK A01 T02410117  RH  048%=      5-min Rain = 0
KSP1 160145Z 34008KT 24/12 A2976 RMK A01 T02370124  RH  051%=      5-min Rain = 0
KSP1 160150Z 02005KT 23/12 A2976 RMK A01 T02340119  RH  050%=      5-min Rain = 0
KSP1 160155Z 20003KT 24/12 A2977 RMK A01 T02360123  RH  051%=      5-min Rain = 0
KSP1 160200Z 31012G23KT 24/12 A2978 RMK A01 T02360123  RH  051%=      5-min Rain = 0
KSP1 160205Z 01016G22KT 24/12 A2978 RMK A01 T02350120  RH  050%=      5-min Rain = 0
KSP1 160210Z 03017G24KT 23/12 A2976 RMK A01 T02300124  RH  053%=      5-min Rain = 0
KSP1 160215Z 03011G17KT 23/12 A2976 RMK A01 T02270124  RH  054%=      5-min Rain = 0
KSP1 160220Z 00012G18KT 22/13 A2974 RMK A01 T02230131  RH  058%=      5-min Rain = 0.01
KSP1 160225Z 02014G21KT 22/13 A2975 RMK A01 T02170134  RH  061%=      5-min Rain = 0.01
KSP1 160230Z 02014G20KT 22/13 A2975 RMK A01 T02170131  RH  060%=      5-min Rain = 0
KSP1 160235Z 04011G17KT 22/13 A2978 RMK A01 T02200126  RH  058%=      5-min Rain = 0
KSP1 160240Z 04010G15KT 22/12 A2979 RMK A01 T02210124  RH  056%=      5-min Rain = 0
KSP1 160245Z 04006KT 22/13 A2979 RMK A01 T02180129  RH  059%=      5-min Rain = 0
KSP1 160250Z 06009KT 22/13 A2979 RMK A01 T02160130  RH  060%=      5-min Rain = 0
KSP1 160255Z 08011G19KT 22/13 A298 RMK A01 T02150134  RH  062%=      5-min Rain = 0
KSP1 160300Z 09012G18KT 21/14 A298 RMK A01 T02120138  RH  065%=      5-min Rain = 0
KSP1 160305Z 07012G18KT 21/14 A298 RMK A01 T02120141  RH  067%=      5-min Rain = 0
KSP1 160310Z 07011G16KT 21/14 A298 RMK A01 T02100143  RH  068%=      5-min Rain = 0
KSP1 160315Z 05013KT 21/14 A298 RMK A01 T02080141  RH  068%=      5-min Rain = 0
KSP1 160320Z 05015G25KT 20/14 A2979 RMK A01 T02020142  RH  071%=      5-min Rain = 0
KSP1 160325Z 05013G20KT 20/14 A2979 RMK A01 T02010136  RH  069%=      5-min Rain = 0
KSP1 160330Z 05013G19KT 20/14 A2979 RMK A01 T02010137  RH  069%=      5-min Rain = 0
KSP1 160335Z 05012G17KT 20/14 A2979 RMK A01 T02040135  RH  067%=      5-min Rain = 0
KSP1 160340Z 04012KT 21/13 A2979 RMK A01 T02080130  RH  063%=      5-min Rain = 0
KSP1 160345Z 04011KT 21/13 A2978 RMK A01 T02130126  RH  060%=      5-min Rain = 0
KSP1 160350Z 05008G13KT 22/13 A2979 RMK A01 T02150126  RH  059%=      5-min Rain = 0
KSP1 160355Z 06005KT 22/12 A2979 RMK A01 T02170124  RH  058%=      5-min Rain = 0
KSP1 160400Z 03006KT 22/13 A298 RMK A01 T02180125  RH  057%=      5-min Rain = 0
KSP1 160405Z 00007KT 22/13 A298 RMK A01 T02190128  RH  059%=      5-min Rain = 0
KSP1 160410Z 14004KT 22/13 A2981 RMK A01 T02180129  RH  059%=      5-min Rain = 0
KSP1 160415Z 05003KT 22/13 A2982 RMK A01 T02160131  RH  061%=      5-min Rain = 0
KSP1 160420Z 12006KT 21/14 A2983 RMK A01 T02140137  RH  064%=      5-min Rain = 0
KSP1 160425Z 10006KT 21/14 A2983 RMK A01 T02110138  RH  066%=      5-min Rain = 0
KSP1 160430Z 09009KT 21/14 A2984 RMK A01 T02070140  RH  068%=      5-min Rain = 0
KSP1 160435Z 05006KT 20/14 A2984 RMK A01 T01990144  RH  074%=      5-min Rain = 0
KSP1 160440Z 07007KT 20/14 A2985 RMK A01 T01950144  RH  076%=      5-min Rain = 0
KSP1 160445Z 07007KT 19/15 A2984 RMK A01 T01920146  RH  078%=      5-min Rain = 0
KSP1 160450Z 07004KT 19/15 A2984 RMK A01 T01900146  RH  079%=      5-min Rain = 0
KSP1 160455Z 03004KT 19/15 A2985 RMK A01 T01890148  RH  080%=      5-min Rain = 0

Page generated in 0.009 seconds.